TUI6AK LPPR-EDHL
Flight info
| Callsign | TUI6AK |
|---|---|
| Flight time | N/A |
| Altitude | 34000 |
| Route | TURON P600 LOTEE DCT AZFIC UN741 MOKOR UN873 OBATO UL976 RONAX DCT ADUTO N873 LABIL |
| Aircraft | B738/M-VGDW/C |
Departure
| Time | 2026-05-06 16:51 |
|---|---|
| Airport | Francisco de Sá Carneiro Airport (LPPR) |
Arrival
| Time | N/A |
|---|---|
| Airport | Lübeck Blankensee Airport (EDHL) |
| Time | Latitude | Longitude | Altitude | Speed | Heading |
|---|---|---|---|---|---|
| 2026-05-06 16:20 | 41.23731 | -8.67270 | 236 ft | 0 kts | 69° |
| 2026-05-06 16:42 | 41.23730 | -8.67271 | 236 ft | 1 kts | 69° |
| 2026-05-06 16:43 | 41.23721 | -8.67301 | 237 ft | 4 kts | 69° |
| 2026-05-06 16:43 | 41.23713 | -8.67329 | 242 ft | 4 kts | 74° |
| 2026-05-06 16:43 | 41.23710 | -8.67363 | 241 ft | 4 kts | 101° |
| 2026-05-06 16:43 | 41.23720 | -8.67395 | 241 ft | 3 kts | 126° |
| 2026-05-06 16:44 | 41.23725 | -8.67404 | 240 ft | 0 kts | 128° |
| 2026-05-06 16:47 | 41.23720 | -8.67395 | 241 ft | 5 kts | 127° |
| 2026-05-06 16:47 | 41.23663 | -8.67341 | 237 ft | 13 kts | 165° |
| 2026-05-06 16:47 | 41.23564 | -8.67354 | 238 ft | 18 kts | 210° |
| 2026-05-06 16:47 | 41.23460 | -8.67381 | 239 ft | 9 kts | 167° |
| 2026-05-06 16:48 | 41.23378 | -8.67362 | 237 ft | 15 kts | 185° |
| 2026-05-06 16:48 | 41.23328 | -8.67455 | 238 ft | 9 kts | 257° |
| 2026-05-06 16:48 | 41.23316 | -8.67533 | 239 ft | 9 kts | 259° |
| 2026-05-06 16:48 | 41.23305 | -8.67609 | 236 ft | 8 kts | 258° |
| 2026-05-06 16:49 | 41.23302 | -8.67626 | 236 ft | 0 kts | 258° |
| 2026-05-06 16:49 | 41.23301 | -8.67631 | 237 ft | 2 kts | 258° |
| 2026-05-06 16:50 | 41.23295 | -8.67674 | 237 ft | 8 kts | 259° |
| 2026-05-06 16:50 | 41.23319 | -8.67733 | 238 ft | 8 kts | 336° |
| 2026-05-06 16:50 | 41.23391 | -8.67754 | 236 ft | 17 kts | 349° |
| 2026-05-06 16:50 | 41.23659 | -8.67824 | 227 ft | 74 kts | 349° |
| 2026-05-06 16:51 | 41.24394 | -8.68016 | 208 ft | 138 kts | 348° |
| 2026-05-06 16:51 | 41.25479 | -8.68300 | 515 ft | 167 kts | 347° |
| 2026-05-06 16:51 | 41.26634 | -8.68517 | 1314 ft | 168 kts | 350° |
| 2026-05-06 16:51 | 41.27806 | -8.68808 | 2129 ft | 176 kts | 347° |
| 2026-05-06 16:52 | 41.29099 | -8.69171 | 2465 ft | 203 kts | 347° |
| 2026-05-06 16:52 | 41.30549 | -8.69575 | 2874 ft | 218 kts | 347° |
| 2026-05-06 16:52 | 41.32080 | -8.69848 | 3411 ft | 229 kts | 0° |
| 2026-05-06 16:52 | 41.33648 | -8.69643 | 4147 ft | 234 kts | 6° |
| 2026-05-06 16:53 | 41.35317 | -8.69312 | 4708 ft | 249 kts | 6° |
| 2026-05-06 16:53 | 41.37032 | -8.68967 | 5459 ft | 255 kts | 6° |
| 2026-05-06 16:53 | 41.38803 | -8.68616 | 6380 ft | 257 kts | 6° |
| 2026-05-06 16:53 | 41.40591 | -8.68268 | 7184 ft | 262 kts | 6° |
| 2026-05-06 16:54 | 41.42412 | -8.67922 | 8000 ft | 265 kts | 6° |
| 2026-05-06 16:54 | 41.44245 | -8.67579 | 8872 ft | 267 kts | 6° |
| 2026-05-06 16:54 | 41.46110 | -8.67235 | 9604 ft | 273 kts | 5° |
| 2026-05-06 16:54 | 41.48013 | -8.66888 | 10381 ft | 279 kts | 5° |
| 2026-05-06 16:55 | 41.50020 | -8.66527 | 10601 ft | 304 kts | 5° |
| 2026-05-06 16:55 | 41.52174 | -8.66142 | 10783 ft | 327 kts | 5° |
| 2026-05-06 16:55 | 41.54500 | -8.65727 | 11023 ft | 346 kts | 6° |
| 2026-05-06 16:55 | 41.56924 | -8.65292 | 11625 ft | 353 kts | 6° |
| 2026-05-06 16:56 | 41.59363 | -8.64852 | 12380 ft | 356 kts | 6° |
| 2026-05-06 16:56 | 41.61835 | -8.64407 | 13060 ft | 360 kts | 5° |
| 2026-05-06 16:56 | 41.64333 | -8.63958 | 13780 ft | 364 kts | 5° |
| 2026-05-06 16:56 | 41.66859 | -8.63505 | 14447 ft | 367 kts | 5° |
| 2026-05-06 16:57 | 41.69368 | -8.63054 | 15134 ft | 368 kts | 5° |
| 2026-05-06 16:57 | 41.71941 | -8.62592 | 15813 ft | 370 kts | 5° |
| 2026-05-06 16:57 | 41.74478 | -8.62137 | 16464 ft | 373 kts | 4° |
| 2026-05-06 16:57 | 41.77060 | -8.61670 | 17132 ft | 375 kts | 5° |
| 2026-05-06 16:58 | 41.79617 | -8.60805 | 17723 ft | 384 kts | 17° |
| 2026-05-06 16:58 | 41.82053 | -8.59242 | 18306 ft | 393 kts | 27° |
| 2026-05-06 16:58 | 41.84344 | -8.57194 | 18827 ft | 398 kts | 30° |
| 2026-05-06 16:58 | 41.86632 | -8.55069 | 19316 ft | 402 kts | 30° |
| 2026-05-06 16:59 | 41.88937 | -8.52915 | 19825 ft | 405 kts | 30° |
| 2026-05-06 16:59 | 41.91265 | -8.50743 | 20331 ft | 408 kts | 30° |
| 2026-05-06 16:59 | 41.93610 | -8.48562 | 20804 ft | 412 kts | 29° |
| 2026-05-06 16:59 | 41.95972 | -8.46372 | 21268 ft | 414 kts | 29° |
| 2026-05-06 17:00 | 41.98351 | -8.44171 | 21732 ft | 417 kts | 29° |
| 2026-05-06 17:00 | 42.00758 | -8.41948 | 22156 ft | 421 kts | 28° |
| 2026-05-06 17:00 | 42.03180 | -8.39711 | 22605 ft | 424 kts | 28° |
| 2026-05-06 17:00 | 42.05591 | -8.37483 | 23060 ft | 427 kts | 28° |
| 2026-05-06 17:01 | 42.08049 | -8.35210 | 23496 ft | 430 kts | 28° |
| 2026-05-06 17:01 | 42.10528 | -8.32916 | 23860 ft | 433 kts | 28° |
| 2026-05-06 17:01 | 42.13021 | -8.30607 | 24201 ft | 435 kts | 28° |
| 2026-05-06 17:01 | 42.15516 | -8.28291 | 24601 ft | 436 kts | 28° |
| 2026-05-06 17:02 | 42.18028 | -8.25959 | 24898 ft | 440 kts | 28° |
| 2026-05-06 17:02 | 42.20570 | -8.23597 | 25204 ft | 444 kts | 28° |
| 2026-05-06 17:02 | 42.23087 | -8.21256 | 25522 ft | 446 kts | 28° |
| 2026-05-06 17:02 | 42.25679 | -8.18841 | 25849 ft | 448 kts | 28° |
| 2026-05-06 17:03 | 42.28255 | -8.16439 | 26162 ft | 451 kts | 28° |
| 2026-05-06 17:03 | 42.30807 | -8.14058 | 26442 ft | 454 kts | 28° |
| 2026-05-06 17:03 | 42.33424 | -8.11613 | 26788 ft | 455 kts | 28° |
| 2026-05-06 17:03 | 42.36030 | -8.09176 | 27136 ft | 457 kts | 28° |
| 2026-05-06 17:04 | 42.38651 | -8.06721 | 27453 ft | 459 kts | 28° |
| 2026-05-06 17:04 | 42.41279 | -8.04259 | 27739 ft | 461 kts | 28° |
| 2026-05-06 17:04 | 42.43923 | -8.01779 | 28023 ft | 463 kts | 28° |
| 2026-05-06 17:04 | 42.46580 | -7.99285 | 28324 ft | 465 kts | 28° |
| 2026-05-06 17:05 | 42.49246 | -7.96777 | 28755 ft | 463 kts | 28° |
| 2026-05-06 17:05 | 42.51852 | -7.94322 | 29252 ft | 461 kts | 28° |
| 2026-05-06 17:05 | 42.54478 | -7.91845 | 29720 ft | 459 kts | 28° |
| 2026-05-06 17:05 | 42.57099 | -7.89371 | 30104 ft | 458 kts | 28° |
| 2026-05-06 17:06 | 42.59726 | -7.86892 | 30420 ft | 457 kts | 28° |
| 2026-05-06 17:06 | 42.62335 | -7.84428 | 30770 ft | 456 kts | 28° |
| 2026-05-06 17:06 | 42.64935 | -7.81968 | 31123 ft | 455 kts | 28° |
| 2026-05-06 17:06 | 42.67533 | -7.79508 | 31416 ft | 455 kts | 28° |
| 2026-05-06 17:07 | 42.70131 | -7.77048 | 31743 ft | 454 kts | 28° |
| 2026-05-06 17:07 | 42.72715 | -7.74596 | 32094 ft | 452 kts | 28° |
| 2026-05-06 17:07 | 42.75294 | -7.72145 | 32430 ft | 451 kts | 28° |
| 2026-05-06 17:07 | 42.77874 | -7.69693 | 32694 ft | 452 kts | 28° |
| 2026-05-06 17:08 | 42.80448 | -7.67244 | 32992 ft | 451 kts | 28° |
| 2026-05-06 17:08 | 42.82990 | -7.64823 | 33321 ft | 450 kts | 28° |
| 2026-05-06 17:08 | 42.85587 | -7.62346 | 33623 ft | 450 kts | 29° |
| 2026-05-06 17:08 | 42.88117 | -7.59931 | 33863 ft | 450 kts | 28° |
| 2026-05-06 17:09 | 42.90690 | -7.57473 | 33984 ft | 452 kts | 29° |
| 2026-05-06 17:09 | 42.95843 | -7.52542 | 33986 ft | 451 kts | 29° |
| 2026-05-06 17:10 | 43.00969 | -7.47622 | 33993 ft | 449 kts | 29° |
| 2026-05-06 17:10 | 43.06072 | -7.42717 | 33995 ft | 447 kts | 30° |
| 2026-05-06 17:11 | 43.11162 | -7.37816 | 33995 ft | 447 kts | 30° |
| 2026-05-06 17:11 | 43.16213 | -7.32942 | 33996 ft | 447 kts | 30° |
| 2026-05-06 17:12 | 43.21302 | -7.28022 | 34002 ft | 448 kts | 30° |
| 2026-05-06 17:12 | 43.26394 | -7.23088 | 34006 ft | 449 kts | 30° |
| 2026-05-06 17:13 | 43.31508 | -7.18122 | 34011 ft | 450 kts | 31° |
| 2026-05-06 17:13 | 43.36635 | -7.13132 | 34018 ft | 452 kts | 31° |
| 2026-05-06 17:14 | 43.41752 | -7.08141 | 34019 ft | 454 kts | 31° |
| 2026-05-06 17:14 | 43.46916 | -7.03094 | 34014 ft | 455 kts | 31° |
| 2026-05-06 17:15 | 43.52089 | -6.98026 | 34013 ft | 456 kts | 31° |
| 2026-05-06 17:15 | 43.57265 | -6.92946 | 34009 ft | 457 kts | 32° |
| 2026-05-06 17:16 | 43.62413 | -6.87882 | 34006 ft | 456 kts | 32° |
| 2026-05-06 17:16 | 43.67590 | -6.82777 | 34004 ft | 456 kts | 32° |
| 2026-05-06 17:17 | 43.72729 | -6.77700 | 34009 ft | 455 kts | 32° |
| 2026-05-06 17:17 | 43.77878 | -6.72602 | 34008 ft | 455 kts | 32° |
| 2026-05-06 17:18 | 43.83039 | -6.67482 | 34010 ft | 455 kts | 32° |
| 2026-05-06 17:18 | 43.88182 | -6.62368 | 34010 ft | 455 kts | 32° |
| 2026-05-06 17:19 | 43.93290 | -6.57278 | 34007 ft | 455 kts | 33° |
| 2026-05-06 17:19 | 43.98433 | -6.52142 | 34004 ft | 455 kts | 33° |
| 2026-05-06 17:20 | 44.03572 | -6.46998 | 34007 ft | 455 kts | 33° |
| 2026-05-06 17:20 | 44.08713 | -6.41842 | 34006 ft | 455 kts | 33° |
| 2026-05-06 17:21 | 44.13851 | -6.36677 | 34007 ft | 456 kts | 33° |
| 2026-05-06 17:21 | 44.18963 | -6.31527 | 34003 ft | 456 kts | 33° |
| 2026-05-06 17:22 | 44.24112 | -6.26328 | 34008 ft | 456 kts | 34° |
| 2026-05-06 17:22 | 44.29267 | -6.21112 | 34006 ft | 457 kts | 34° |
| 2026-05-06 17:23 | 44.33547 | -6.16772 | 34009 ft | 457 kts | 34° |
| 2026-05-06 17:23 | 44.39534 | -6.10688 | 34004 ft | 457 kts | 34° |
| 2026-05-06 17:24 | 44.43842 | -6.06300 | 34005 ft | 457 kts | 34° |
| 2026-05-06 17:24 | 44.48963 | -6.01072 | 34007 ft | 457 kts | 34° |
| 2026-05-06 17:25 | 44.54103 | -5.95815 | 34010 ft | 457 kts | 34° |
| 2026-05-06 17:25 | 44.59252 | -5.90536 | 34003 ft | 457 kts | 34° |
| 2026-05-06 17:26 | 44.64357 | -5.85291 | 34012 ft | 457 kts | 34° |
| 2026-05-06 17:26 | 44.69206 | -5.79502 | 34017 ft | 458 kts | 42° |
| 2026-05-06 17:27 | 44.73734 | -5.73203 | 34008 ft | 458 kts | 44° |
| 2026-05-06 17:27 | 44.78241 | -5.66874 | 34005 ft | 457 kts | 43° |
| 2026-05-06 17:28 | 44.82775 | -5.60581 | 34007 ft | 457 kts | 43° |
| 2026-05-06 17:28 | 44.87325 | -5.54303 | 33919 ft | 457 kts | 43° |
| 2026-05-06 17:29 | 44.91829 | -5.48086 | 34006 ft | 456 kts | 43° |
| 2026-05-06 17:29 | 44.96370 | -5.41804 | 34015 ft | 457 kts | 43° |
| 2026-05-06 17:30 | 45.00925 | -5.35483 | 34014 ft | 459 kts | 43° |
| 2026-05-06 17:30 | 45.05487 | -5.29138 | 34013 ft | 461 kts | 43° |
| 2026-05-06 17:31 | 45.10062 | -5.22760 | 34010 ft | 462 kts | 44° |
| 2026-05-06 17:31 | 45.14639 | -5.16363 | 34011 ft | 462 kts | 44° |
| 2026-05-06 17:32 | 45.19218 | -5.09948 | 34016 ft | 463 kts | 44° |
| 2026-05-06 17:32 | 45.23793 | -5.03523 | 34011 ft | 462 kts | 44° |
| 2026-05-06 17:33 | 45.28359 | -4.97096 | 34007 ft | 461 kts | 44° |
| 2026-05-06 17:33 | 45.32875 | -4.90722 | 34011 ft | 460 kts | 44° |
| 2026-05-06 17:34 | 45.37414 | -4.84302 | 34011 ft | 459 kts | 44° |
| 2026-05-06 17:34 | 45.41939 | -4.77887 | 34008 ft | 458 kts | 44° |
| 2026-05-06 17:35 | 45.46450 | -4.71476 | 34014 ft | 457 kts | 44° |
| 2026-05-06 17:35 | 45.50913 | -4.65119 | 34008 ft | 456 kts | 44° |
| 2026-05-06 17:36 | 45.57649 | -4.55494 | 34008 ft | 456 kts | 44° |
| 2026-05-06 17:36 | 45.62125 | -4.49080 | 34006 ft | 456 kts | 44° |
| 2026-05-06 17:37 | 45.66598 | -4.42654 | 34008 ft | 456 kts | 44° |
| 2026-05-06 17:37 | 45.71043 | -4.36253 | 34006 ft | 456 kts | 44° |
| 2026-05-06 17:38 | 45.75518 | -4.29793 | 34010 ft | 456 kts | 44° |
| 2026-05-06 17:38 | 45.79994 | -4.23316 | 34008 ft | 457 kts | 44° |
| 2026-05-06 17:39 | 45.84471 | -4.16823 | 34000 ft | 457 kts | 44° |
| 2026-05-06 17:39 | 45.88915 | -4.10362 | 34004 ft | 457 kts | 44° |
| 2026-05-06 17:40 | 45.93378 | -4.03856 | 33998 ft | 457 kts | 44° |
| 2026-05-06 17:40 | 45.97848 | -3.97324 | 33996 ft | 457 kts | 44° |
| 2026-05-06 17:41 | 46.02278 | -3.90837 | 33995 ft | 457 kts | 44° |
| 2026-05-06 17:41 | 46.06733 | -3.84296 | 33998 ft | 456 kts | 44° |
| 2026-05-06 17:42 | 46.11175 | -3.77758 | 33992 ft | 456 kts | 44° |
| 2026-05-06 17:42 | 46.15608 | -3.71216 | 33994 ft | 455 kts | 44° |
| 2026-05-06 17:43 | 46.20028 | -3.64678 | 33992 ft | 455 kts | 44° |
| 2026-05-06 17:43 | 46.24448 | -3.58125 | 33992 ft | 454 kts | 44° |
| 2026-05-06 17:44 | 46.28823 | -3.51622 | 33990 ft | 454 kts | 44° |
| 2026-05-06 17:44 | 46.33222 | -3.45066 | 33989 ft | 453 kts | 44° |
| 2026-05-06 17:45 | 46.37613 | -3.38508 | 33983 ft | 453 kts | 44° |
| 2026-05-06 17:45 | 46.41975 | -3.31975 | 33985 ft | 452 kts | 44° |
| 2026-05-06 17:46 | 46.46354 | -3.25402 | 33986 ft | 452 kts | 44° |
| 2026-05-06 17:46 | 46.50720 | -3.18831 | 33984 ft | 452 kts | 44° |
| 2026-05-06 17:47 | 46.55086 | -3.12246 | 33983 ft | 451 kts | 44° |
| 2026-05-06 17:47 | 46.58853 | -3.05037 | 33992 ft | 453 kts | 58° |
| 2026-05-06 17:48 | 46.61992 | -2.97067 | 33980 ft | 454 kts | 59° |
| 2026-05-06 17:48 | 46.65122 | -2.89064 | 33979 ft | 453 kts | 58° |
| 2026-05-06 17:49 | 46.68257 | -2.81159 | 33969 ft | 453 kts | 58° |
| 2026-05-06 17:49 | 46.71439 | -2.73168 | 33969 ft | 453 kts | 58° |
| 2026-05-06 17:50 | 46.74575 | -2.65277 | 33979 ft | 452 kts | 58° |
| 2026-05-06 17:50 | 46.77724 | -2.57323 | 33970 ft | 452 kts | 58° |
| 2026-05-06 17:51 | 46.80864 | -2.49366 | 33974 ft | 452 kts | 58° |
| 2026-05-06 17:51 | 46.83997 | -2.41408 | 33974 ft | 452 kts | 58° |
| 2026-05-06 17:52 | 46.87143 | -2.33462 | 33965 ft | 451 kts | 57° |
| 2026-05-06 17:52 | 46.90452 | -2.25673 | 33967 ft | 450 kts | 56° |
| 2026-05-06 17:53 | 46.93756 | -2.17940 | 33964 ft | 450 kts | 56° |
| 2026-05-06 17:53 | 46.97044 | -2.10131 | 33969 ft | 450 kts | 56° |
| 2026-05-06 17:54 | 47.00474 | -2.02476 | 33958 ft | 448 kts | 48° |
| 2026-05-06 17:54 | 47.05043 | -1.96391 | 33981 ft | 443 kts | 34° |
| 2026-05-06 17:55 | 47.10036 | -1.91051 | 33964 ft | 444 kts | 34° |
| 2026-05-06 17:55 | 47.14986 | -1.85611 | 33968 ft | 444 kts | 35° |
| 2026-05-06 17:56 | 47.19900 | -1.80167 | 33962 ft | 444 kts | 35° |
| 2026-05-06 17:56 | 47.24850 | -1.74711 | 33967 ft | 444 kts | 35° |
| 2026-05-06 17:57 | 47.29801 | -1.69238 | 33967 ft | 444 kts | 35° |
| 2026-05-06 17:57 | 47.34644 | -1.63649 | 33961 ft | 446 kts | 41° |
| 2026-05-06 17:58 | 47.38653 | -1.56648 | 33969 ft | 448 kts | 51° |
| 2026-05-06 17:58 | 47.42441 | -1.49318 | 33963 ft | 448 kts | 51° |
| 2026-05-06 17:59 | 47.46241 | -1.42022 | 33967 ft | 448 kts | 50° |
| 2026-05-06 17:59 | 47.50068 | -1.34735 | 33966 ft | 448 kts | 50° |
| 2026-05-06 18:00 | 47.53877 | -1.27489 | 33970 ft | 448 kts | 50° |
| 2026-05-06 18:00 | 47.57700 | -1.20197 | 33967 ft | 448 kts | 50° |
| 2026-05-06 18:01 | 47.61519 | -1.12888 | 33970 ft | 448 kts | 50° |
| 2026-05-06 18:01 | 47.65341 | -1.05554 | 33964 ft | 448 kts | 50° |
| 2026-05-06 18:02 | 47.69147 | -0.98231 | 33974 ft | 448 kts | 51° |
| 2026-05-06 18:02 | 47.72950 | -0.90895 | 33975 ft | 448 kts | 51° |
| 2026-05-06 18:03 | 47.76734 | -0.83584 | 33969 ft | 449 kts | 51° |
| 2026-05-06 18:03 | 47.80539 | -0.76217 | 33968 ft | 449 kts | 51° |
| 2026-05-06 18:04 | 47.84342 | -0.68834 | 33970 ft | 449 kts | 51° |
| 2026-05-06 18:04 | 47.88141 | -0.61436 | 33968 ft | 449 kts | 51° |
| 2026-05-06 18:05 | 47.91907 | -0.54083 | 33968 ft | 449 kts | 51° |
| 2026-05-06 18:05 | 47.95697 | -0.46662 | 33967 ft | 449 kts | 51° |
| 2026-05-06 18:06 | 47.99478 | -0.39239 | 33973 ft | 449 kts | 51° |
| 2026-05-06 18:06 | 48.03253 | -0.31809 | 33967 ft | 449 kts | 51° |
| 2026-05-06 18:07 | 48.06387 | -0.25624 | 33968 ft | 449 kts | 51° |
| 2026-05-06 18:07 | 48.10825 | -0.17009 | 33971 ft | 449 kts | 51° |
| 2026-05-06 18:08 | 48.14040 | -0.10836 | 33969 ft | 449 kts | 51° |
| 2026-05-06 18:08 | 48.17876 | -0.03439 | 33968 ft | 449 kts | 51° |
| 2026-05-06 18:09 | 48.21677 | 0.03932 | 33971 ft | 449 kts | 51° |
| 2026-05-06 18:09 | 48.25496 | 0.11363 | 33973 ft | 449 kts | 51° |
| 2026-05-06 18:10 | 48.29316 | 0.18817 | 33962 ft | 450 kts | 51° |
| 2026-05-06 18:10 | 48.33111 | 0.26242 | 33969 ft | 450 kts | 51° |
| 2026-05-06 18:11 | 48.36921 | 0.33715 | 33961 ft | 450 kts | 51° |
| 2026-05-06 18:11 | 48.41011 | 0.40819 | 33954 ft | 447 kts | 40° |
| 2026-05-06 18:12 | 48.45695 | 0.46995 | 33957 ft | 447 kts | 39° |
| 2026-05-06 18:12 | 48.50392 | 0.53097 | 33953 ft | 447 kts | 40° |
| 2026-05-06 18:13 | 48.55083 | 0.59273 | 33952 ft | 447 kts | 40° |
| 2026-05-06 18:13 | 48.59764 | 0.65503 | 33961 ft | 448 kts | 40° |
| 2026-05-06 18:14 | 48.64432 | 0.71749 | 33961 ft | 448 kts | 40° |
| 2026-05-06 18:14 | 48.69096 | 0.78007 | 33957 ft | 448 kts | 40° |
| 2026-05-06 18:15 | 48.73752 | 0.84269 | 33956 ft | 448 kts | 40° |
| 2026-05-06 18:15 | 48.78419 | 0.90560 | 33952 ft | 448 kts | 40° |
| 2026-05-06 18:16 | 48.83045 | 0.96811 | 33964 ft | 448 kts | 40° |
| 2026-05-06 18:16 | 48.87696 | 1.03114 | 33965 ft | 448 kts | 40° |
| 2026-05-06 18:17 | 48.92347 | 1.09432 | 33971 ft | 448 kts | 40° |
| 2026-05-06 18:17 | 48.96995 | 1.15763 | 33973 ft | 448 kts | 40° |
| 2026-05-06 18:18 | 49.01634 | 1.22098 | 33961 ft | 448 kts | 40° |
| 2026-05-06 18:18 | 49.06279 | 1.28457 | 33960 ft | 448 kts | 40° |
| 2026-05-06 18:19 | 49.10919 | 1.34827 | 33966 ft | 448 kts | 40° |
| 2026-05-06 18:19 | 49.15527 | 1.41169 | 33964 ft | 448 kts | 41° |
| 2026-05-06 18:20 | 49.20146 | 1.47545 | 33956 ft | 447 kts | 41° |
| 2026-05-06 18:20 | 49.24771 | 1.53942 | 33955 ft | 447 kts | 41° |
| 2026-05-06 18:21 | 49.29360 | 1.60306 | 33966 ft | 447 kts | 41° |
| 2026-05-06 18:21 | 49.33979 | 1.66733 | 33946 ft | 448 kts | 41° |
| 2026-05-06 18:22 | 49.38594 | 1.73169 | 33948 ft | 448 kts | 41° |
| 2026-05-06 18:22 | 49.43178 | 1.79580 | 33943 ft | 448 kts | 41° |
| 2026-05-06 18:23 | 49.47788 | 1.86042 | 33938 ft | 448 kts | 41° |
| 2026-05-06 18:23 | 49.52396 | 1.92520 | 33945 ft | 449 kts | 41° |
| 2026-05-06 18:24 | 49.57018 | 1.99036 | 33943 ft | 449 kts | 41° |
| 2026-05-06 18:24 | 49.61635 | 2.05561 | 33937 ft | 450 kts | 41° |
| 2026-05-06 18:25 | 49.66227 | 2.12066 | 33945 ft | 450 kts | 41° |
| 2026-05-06 18:25 | 49.70845 | 2.18629 | 33942 ft | 451 kts | 41° |
| 2026-05-06 18:26 | 49.75461 | 2.25205 | 33936 ft | 451 kts | 42° |
| 2026-05-06 18:26 | 49.80055 | 2.31770 | 33938 ft | 452 kts | 41° |
| 2026-05-06 18:27 | 49.84675 | 2.38390 | 33939 ft | 452 kts | 42° |